sensor_id;sensor_type;location;lat;lon;timestamp;temperature;humidity
981;DHT22;479;53.514;9.994;2022-07-29T00:00:12;15.00;99.90
981;DHT22;479;53.514;9.994;2022-07-29T00:02:39;15.00;99.90
981;DHT22;479;53.514;9.994;2022-07-29T00:05:08;15.10;99.90
981;DHT22;479;53.514;9.994;2022-07-29T00:07:35;15.10;99.90
981;DHT22;479;53.514;9.994;2022-07-29T00:10:04;15.10;99.90
981;DHT22;479;53.514;9.994;2022-07-29T00:12:30;15.10;99.90
981;DHT22;479;53.514;9.994;2022-07-29T00:14:57;15.10;99.90
981;DHT22;479;53.514;9.994;2022-07-29T00:17:24;15.00;99.90
981;DHT22;479;53.514;9.994;2022-07-29T00:19:52;15.00;99.90
981;DHT22;479;53.514;9.994;2022-07-29T00:22:19;14.90;99.90
981;DHT22;479;53.514;9.994;2022-07-29T00:24:47;14.80;99.90
981;DHT22;479;53.514;9.994;2022-07-29T00:27:15;14.80;99.90
981;DHT22;479;53.514;9.994;2022-07-29T00:29:43;14.80;99.90
981;DHT22;479;53.514;9.994;2022-07-29T00:32:09;14.80;99.90
981;DHT22;479;53.514;9.994;2022-07-29T00:34:36;14.80;99.90
981;DHT22;479;53.514;9.994;2022-07-29T00:37:21;14.80;99.90
981;DHT22;479;53.514;9.994;2022-07-29T00:39:47;14.60;99.90
981;DHT22;479;53.514;9.994;2022-07-29T00:42:16;14.60;99.90
981;DHT22;479;53.514;9.994;2022-07-29T00:44:43;14.60;99.90
981;DHT22;479;53.514;9.994;2022-07-29T00:47:11;14.50;99.90
981;DHT22;479;53.514;9.994;2022-07-29T00:49:38;14.50;99.90
981;DHT22;479;53.514;9.994;2022-07-29T00:52:07;14.50;99.90
981;DHT22;479;53.514;9.994;2022-07-29T00:54:34;14.60;99.90
981;DHT22;479;53.514;9.994;2022-07-29T00:57:02;14.60;99.90
981;DHT22;479;53.514;9.994;2022-07-29T00:59:30;14.70;99.90
981;DHT22;479;53.514;9.994;2022-07-29T01:01:57;14.80;99.90
981;DHT22;479;53.514;9.994;2022-07-29T01:04:24;14.80;99.90
981;DHT22;479;53.514;9.994;2022-07-29T01:06:52;14.80;99.90
981;DHT22;479;53.514;9.994;2022-07-29T01:09:21;14.70;99.90
981;DHT22;479;53.514;9.994;2022-07-29T01:11:48;14.70;99.90
981;DHT22;479;53.514;9.994;2022-07-29T01:14:16;14.70;99.90
981;DHT22;479;53.514;9.994;2022-07-29T01:16:49;14.80;99.90
981;DHT22;479;53.514;9.994;2022-07-29T01:19:32;14.70;99.90
981;DHT22;479;53.514;9.994;2022-07-29T01:22:11;14.80;99.90
981;DHT22;479;53.514;9.994;2022-07-29T01:24:55;14.70;99.90
981;DHT22;479;53.514;9.994;2022-07-29T01:27:38;14.60;99.90
981;DHT22;479;53.514;9.994;2022-07-29T01:30:09;14.70;99.90
981;DHT22;479;53.514;9.994;2022-07-29T01:32:37;14.60;99.90
981;DHT22;479;53.514;9.994;2022-07-29T01:35:10;14.60;99.90
981;DHT22;479;53.514;9.994;2022-07-29T01:37:45;14.60;99.90
981;DHT22;479;53.514;9.994;2022-07-29T01:40:20;14.60;99.90
981;DHT22;479;53.514;9.994;2022-07-29T01:42:50;14.50;99.90
981;DHT22;479;53.514;9.994;2022-07-29T01:45:23;14.50;99.90
981;DHT22;479;53.514;9.994;2022-07-29T01:47:56;14.50;99.90
981;DHT22;479;53.514;9.994;2022-07-29T01:50:31;14.50;99.90
981;DHT22;479;53.514;9.994;2022-07-29T01:53:02;14.50;99.90
981;DHT22;479;53.514;9.994;2022-07-29T01:55:32;14.50;99.90
981;DHT22;479;53.514;9.994;2022-07-29T01:58:03;14.50;99.90
981;DHT22;479;53.514;9.994;2022-07-29T02:00:33;14.50;99.90
981;DHT22;479;53.514;9.994;2022-07-29T02:03:04;14.50;99.90
981;DHT22;479;53.514;9.994;2022-07-29T02:05:32;14.50;99.90
981;DHT22;479;53.514;9.994;2022-07-29T02:08:00;14.50;99.90
981;DHT22;479;53.514;9.994;2022-07-29T02:10:30;14.50;99.90
981;DHT22;479;53.514;9.994;2022-07-29T02:12:58;14.50;99.90
981;DHT22;479;53.514;9.994;2022-07-29T02:15:28;14.50;99.90
981;DHT22;479;53.514;9.994;2022-07-29T02:18:00;14.50;99.90
981;DHT22;479;53.514;9.994;2022-07-29T02:20:28;14.50;99.90
981;DHT22;479;53.514;9.994;2022-07-29T02:22:56;14.50;99.90
981;DHT22;479;53.514;9.994;2022-07-29T02:25:24;14.50;99.90
981;DHT22;479;53.514;9.994;2022-07-29T02:27:53;14.50;99.90
981;DHT22;479;53.514;9.994;2022-07-29T02:30:21;14.40;99.90
981;DHT22;479;53.514;9.994;2022-07-29T02:32:52;14.50;99.90
981;DHT22;479;53.514;9.994;2022-07-29T02:35:21;14.40;99.90
981;DHT22;479;53.514;9.994;2022-07-29T02:37:50;14.40;99.90
981;DHT22;479;53.514;9.994;2022-07-29T02:40:32;14.40;99.90
981;DHT22;479;53.514;9.994;2022-07-29T02:43:01;14.30;99.90
981;DHT22;479;53.514;9.994;2022-07-29T02:45:29;14.30;99.90
981;DHT22;479;53.514;9.994;2022-07-29T02:47:58;14.30;99.90
981;DHT22;479;53.514;9.994;2022-07-29T02:50:31;14.30;99.90
981;DHT22;479;53.514;9.994;2022-07-29T02:53:02;14.30;99.90
981;DHT22;479;53.514;9.994;2022-07-29T02:55:34;14.30;99.90
981;DHT22;479;53.514;9.994;2022-07-29T02:58:07;14.30;99.90
981;DHT22;479;53.514;9.994;2022-07-29T03:00:38;14.30;99.90
981;DHT22;479;53.514;9.994;2022-07-29T03:03:11;14.30;99.90
981;DHT22;479;53.514;9.994;2022-07-29T03:05:41;14.30;99.90
981;DHT22;479;53.514;9.994;2022-07-29T03:08:09;14.30;99.90
981;DHT22;479;53.514;9.994;2022-07-29T03:10:39;14.30;99.90
981;DHT22;479;53.514;9.994;2022-07-29T03:13:09;14.30;99.90
981;DHT22;479;53.514;9.994;2022-07-29T03:15:38;14.30;99.90
981;DHT22;479;53.514;9.994;2022-07-29T03:18:06;14.30;99.90
981;DHT22;479;53.514;9.994;2022-07-29T03:20:33;14.30;99.90
981;DHT22;479;53.514;9.994;2022-07-29T03:23:02;14.30;99.90
981;DHT22;479;53.514;9.994;2022-07-29T03:25:28;14.30;99.90
981;DHT22;479;53.514;9.994;2022-07-29T03:27:55;14.20;99.90
981;DHT22;479;53.514;9.994;2022-07-29T03:30:23;14.20;99.90
981;DHT22;479;53.514;9.994;2022-07-29T03:32:50;14.20;99.90
981;DHT22;479;53.514;9.994;2022-07-29T03:35:17;14.30;99.90
981;DHT22;479;53.514;9.994;2022-07-29T03:37:45;14.20;99.90
981;DHT22;479;53.514;9.994;2022-07-29T03:40:16;14.20;99.90
981;DHT22;479;53.514;9.994;2022-07-29T03:42:45;14.20;99.90
981;DHT22;479;53.514;9.994;2022-07-29T03:45:16;14.30;99.90
981;DHT22;479;53.514;9.994;2022-07-29T03:47:48;14.20;99.90
981;DHT22;479;53.514;9.994;2022-07-29T03:50:16;14.20;99.90
981;DHT22;479;53.514;9.994;2022-07-29T03:52:45;14.20;99.90
981;DHT22;479;53.514;9.994;2022-07-29T03:55:14;14.30;99.90
981;DHT22;479;53.514;9.994;2022-07-29T03:57:41;14.30;99.90
981;DHT22;479;53.514;9.994;2022-07-29T04:00:10;14.20;99.90
981;DHT22;479;53.514;9.994;2022-07-29T04:02:38;14.20;99.90
981;DHT22;479;53.514;9.994;2022-07-29T04:05:05;14.20;99.90
981;DHT22;479;53.514;9.994;2022-07-29T04:07:37;14.30;99.90
981;DHT22;479;53.514;9.994;2022-07-29T04:10:06;14.40;99.90
981;DHT22;479;53.514;9.994;2022-07-29T04:12:34;14.40;99.90
981;DHT22;479;53.514;9.994;2022-07-29T04:15:01;14.40;99.90
981;DHT22;479;53.514;9.994;2022-07-29T04:17:28;14.40;99.90
981;DHT22;479;53.514;9.994;2022-07-29T04:19:55;14.40;99.90
981;DHT22;479;53.514;9.994;2022-07-29T04:22:21;14.40;99.90
981;DHT22;479;53.514;9.994;2022-07-29T04:24:48;14.50;99.90
981;DHT22;479;53.514;9.994;2022-07-29T04:27:15;14.50;99.90
981;DHT22;479;53.514;9.994;2022-07-29T04:29:43;14.50;99.90
981;DHT22;479;53.514;9.994;2022-07-29T04:32:10;14.60;99.90
981;DHT22;479;53.514;9.994;2022-07-29T04:34:37;14.60;99.90
981;DHT22;479;53.514;9.994;2022-07-29T04:37:04;14.70;99.90
981;DHT22;479;53.514;9.994;2022-07-29T04:39:31;14.70;99.90
981;DHT22;479;53.514;9.994;2022-07-29T04:41:58;14.80;99.90
981;DHT22;479;53.514;9.994;2022-07-29T04:44:25;14.90;99.90
981;DHT22;479;53.514;9.994;2022-07-29T04:46:53;14.90;99.90
981;DHT22;479;53.514;9.994;2022-07-29T04:49:20;15.00;99.90
981;DHT22;479;53.514;9.994;2022-07-29T04:51:47;15.00;99.90
981;DHT22;479;53.514;9.994;2022-07-29T04:54:14;15.00;99.90
981;DHT22;479;53.514;9.994;2022-07-29T04:56:41;15.10;99.90
981;DHT22;479;53.514;9.994;2022-07-29T04:59:08;15.10;99.90
981;DHT22;479;53.514;9.994;2022-07-29T05:01:35;15.00;99.90
981;DHT22;479;53.514;9.994;2022-07-29T05:04:03;15.10;99.90
981;DHT22;479;53.514;9.994;2022-07-29T05:06:30;15.20;99.90
981;DHT22;479;53.514;9.994;2022-07-29T05:08:57;15.20;99.90
981;DHT22;479;53.514;9.994;2022-07-29T05:11:24;15.20;99.90
981;DHT22;479;53.514;9.994;2022-07-29T05:13:51;15.20;99.90
981;DHT22;479;53.514;9.994;2022-07-29T05:16:17;15.30;99.90
981;DHT22;479;53.514;9.994;2022-07-29T05:18:44;15.30;99.90
981;DHT22;479;53.514;9.994;2022-07-29T05:21:13;15.40;99.90
981;DHT22;479;53.514;9.994;2022-07-29T05:23:39;15.40;99.90
981;DHT22;479;53.514;9.994;2022-07-29T05:26:06;15.50;99.90
981;DHT22;479;53.514;9.994;2022-07-29T05:28:33;15.70;99.90
981;DHT22;479;53.514;9.994;2022-07-29T05:31:00;15.80;99.90
981;DHT22;479;53.514;9.994;2022-07-29T05:33:27;15.80;99.90
981;DHT22;479;53.514;9.994;2022-07-29T05:35:54;15.80;99.90
981;DHT22;479;53.514;9.994;2022-07-29T05:38:22;15.80;99.90
981;DHT22;479;53.514;9.994;2022-07-29T05:40:49;15.80;99.90
981;DHT22;479;53.514;9.994;2022-07-29T05:43:16;15.90;99.90
981;DHT22;479;53.514;9.994;2022-07-29T05:45:43;15.90;99.90
981;DHT22;479;53.514;9.994;2022-07-29T05:48:10;15.90;99.90
981;DHT22;479;53.514;9.994;2022-07-29T05:50:37;16.00;99.90
981;DHT22;479;53.514;9.994;2022-07-29T05:53:04;16.30;99.90
981;DHT22;479;53.514;9.994;2022-07-29T05:55:32;16.40;99.90
981;DHT22;479;53.514;9.994;2022-07-29T05:57:59;16.50;99.90
981;DHT22;479;53.514;9.994;2022-07-29T06:00:26;16.60;99.90
981;DHT22;479;53.514;9.994;2022-07-29T06:02:53;16.70;99.90
981;DHT22;479;53.514;9.994;2022-07-29T06:05:20;16.90;99.90
981;DHT22;479;53.514;9.994;2022-07-29T06:07:47;17.00;99.90
981;DHT22;479;53.514;9.994;2022-07-29T06:10:14;17.10;99.90
981;DHT22;479;53.514;9.994;2022-07-29T06:12:42;17.30;99.90
981;DHT22;479;53.514;9.994;2022-07-29T06:15:09;17.30;99.90
981;DHT22;479;53.514;9.994;2022-07-29T06:17:36;17.30;99.90
981;DHT22;479;53.514;9.994;2022-07-29T06:20:04;17.30;99.90
981;DHT22;479;53.514;9.994;2022-07-29T06:22:31;17.30;99.90
981;DHT22;479;53.514;9.994;2022-07-29T06:24:58;17.20;99.90
981;DHT22;479;53.514;9.994;2022-07-29T06:27:25;17.20;99.90
981;DHT22;479;53.514;9.994;2022-07-29T06:29:53;17.20;99.90
981;DHT22;479;53.514;9.994;2022-07-29T06:32:20;17.20;99.90
981;DHT22;479;53.514;9.994;2022-07-29T06:34:47;17.20;99.90
981;DHT22;479;53.514;9.994;2022-07-29T06:37:14;17.30;99.90
981;DHT22;479;53.514;9.994;2022-07-29T06:39:41;17.50;99.90
981;DHT22;479;53.514;9.994;2022-07-29T06:42:08;17.60;99.90
981;DHT22;479;53.514;9.994;2022-07-29T06:44:35;17.60;99.90
981;DHT22;479;53.514;9.994;2022-07-29T06:47:03;17.60;99.90
981;DHT22;479;53.514;9.994;2022-07-29T06:49:30;17.60;99.90
981;DHT22;479;53.514;9.994;2022-07-29T06:51:57;17.70;99.90
981;DHT22;479;53.514;9.994;2022-07-29T06:54:24;17.90;99.90
981;DHT22;479;53.514;9.994;2022-07-29T06:56:51;18.00;99.90
981;DHT22;479;53.514;9.994;2022-07-29T06:59:18;18.10;99.90
981;DHT22;479;53.514;9.994;2022-07-29T07:01:44;18.10;99.90
981;DHT22;479;53.514;9.994;2022-07-29T07:04:13;18.10;99.90
981;DHT22;479;53.514;9.994;2022-07-29T07:06:40;18.10;99.90
981;DHT22;479;53.514;9.994;2022-07-29T07:09:07;18.10;99.90
981;DHT22;479;53.514;9.994;2022-07-29T07:11:34;18.00;99.90
981;DHT22;479;53.514;9.994;2022-07-29T07:14:01;18.10;99.90
981;DHT22;479;53.514;9.994;2022-07-29T07:16:28;18.10;99.90
981;DHT22;479;53.514;9.994;2022-07-29T07:18:54;18.20;99.90
981;DHT22;479;53.514;9.994;2022-07-29T07:21:23;18.30;99.90
981;DHT22;479;53.514;9.994;2022-07-29T07:23:50;18.40;99.90
981;DHT22;479;53.514;9.994;2022-07-29T07:26:17;18.30;99.90
981;DHT22;479;53.514;9.994;2022-07-29T07:28:43;18.30;99.90
981;DHT22;479;53.514;9.994;2022-07-29T07:31:11;18.20;99.90
981;DHT22;479;53.514;9.994;2022-07-29T07:33:38;18.20;99.90
981;DHT22;479;53.514;9.994;2022-07-29T07:36:05;18.40;99.90
981;DHT22;479;53.514;9.994;2022-07-29T07:38:33;18.60;99.90
981;DHT22;479;53.514;9.994;2022-07-29T07:41:01;18.70;99.90
981;DHT22;479;53.514;9.994;2022-07-29T07:43:27;18.80;99.90
981;DHT22;479;53.514;9.994;2022-07-29T07:45:54;18.80;99.90
981;DHT22;479;53.514;9.994;2022-07-29T07:48:21;19.00;99.90
981;DHT22;479;53.514;9.994;2022-07-29T07:50:48;19.10;99.90
981;DHT22;479;53.514;9.994;2022-07-29T07:53:16;19.20;99.90
981;DHT22;479;53.514;9.994;2022-07-29T07:55:44;19.30;99.90
981;DHT22;479;53.514;9.994;2022-07-29T07:58:11;19.40;99.90
981;DHT22;479;53.514;9.994;2022-07-29T08:00:38;19.60;99.90
981;DHT22;479;53.514;9.994;2022-07-29T08:03:05;19.80;99.90
981;DHT22;479;53.514;9.994;2022-07-29T08:05:32;19.80;99.90
981;DHT22;479;53.514;9.994;2022-07-29T08:07:59;20.00;99.90
981;DHT22;479;53.514;9.994;2022-07-29T08:10:26;20.20;99.90
981;DHT22;479;53.514;9.994;2022-07-29T08:13:11;20.70;99.90
981;DHT22;479;53.514;9.994;2022-07-29T08:15:41;20.80;99.90
981;DHT22;479;53.514;9.994;2022-07-29T08:18:11;21.10;99.90
981;DHT22;479;53.514;9.994;2022-07-29T08:20:41;21.40;99.90
981;DHT22;479;53.514;9.994;2022-07-29T08:23:08;21.60;97.30
981;DHT22;479;53.514;9.994;2022-07-29T08:25:35;21.80;96.70
981;DHT22;479;53.514;9.994;2022-07-29T08:28:04;21.80;95.70
981;DHT22;479;53.514;9.994;2022-07-29T08:30:32;21.90;95.20
981;DHT22;479;53.514;9.994;2022-07-29T08:33:00;22.20;93.70
981;DHT22;479;53.514;9.994;2022-07-29T08:35:27;22.40;93.70
981;DHT22;479;53.514;9.994;2022-07-29T08:37:54;22.60;93.30
981;DHT22;479;53.514;9.994;2022-07-29T08:40:22;22.50;92.20
981;DHT22;479;53.514;9.994;2022-07-29T08:42:50;22.80;92.90
981;DHT22;479;53.514;9.994;2022-07-29T08:45:17;23.10;91.10
981;DHT22;479;53.514;9.994;2022-07-29T08:47:45;23.40;90.40
981;DHT22;479;53.514;9.994;2022-07-29T08:50:12;23.90;87.00
981;DHT22;479;53.514;9.994;2022-07-29T08:52:40;24.50;80.80
981;DHT22;479;53.514;9.994;2022-07-29T08:55:09;25.10;74.10
981;DHT22;479;53.514;9.994;2022-07-29T08:57:38;25.40;69.90
981;DHT22;479;53.514;9.994;2022-07-29T09:00:07;26.10;65.70
981;DHT22;479;53.514;9.994;2022-07-29T09:02:40;26.50;62.60
981;DHT22;479;53.514;9.994;2022-07-29T09:05:09;27.30;59.00
981;DHT22;479;53.514;9.994;2022-07-29T09:07:36;27.40;57.20
981;DHT22;479;53.514;9.994;2022-07-29T09:10:06;26.40;56.90
981;DHT22;479;53.514;9.994;2022-07-29T09:12:33;25.70;59.20
981;DHT22;479;53.514;9.994;2022-07-29T09:15:00;25.10;59.50
981;DHT22;479;53.514;9.994;2022-07-29T09:17:40;24.80;61.00
981;DHT22;479;53.514;9.994;2022-07-29T09:20:10;24.70;61.90
981;DHT22;479;53.514;9.994;2022-07-29T09:22:37;24.40;62.70
981;DHT22;479;53.514;9.994;2022-07-29T09:25:05;24.40;63.50
981;DHT22;479;53.514;9.994;2022-07-29T09:27:32;24.20;64.80
981;DHT22;479;53.514;9.994;2022-07-29T09:30:01;24.10;65.60
981;DHT22;479;53.514;9.994;2022-07-29T09:32:29;23.90;66.40
981;DHT22;479;53.514;9.994;2022-07-29T09:35:18;23.70;68.20
981;DHT22;479;53.514;9.994;2022-07-29T09:37:46;23.70;67.60
981;DHT22;479;53.514;9.994;2022-07-29T09:40:15;23.70;67.90
981;DHT22;479;53.514;9.994;2022-07-29T09:42:42;23.70;67.60
981;DHT22;479;53.514;9.994;2022-07-29T09:45:10;23.60;67.70
981;DHT22;479;53.514;9.994;2022-07-29T09:47:42;23.70;68.00
981;DHT22;479;53.514;9.994;2022-07-29T09:50:10;23.70;69.40
981;DHT22;479;53.514;9.994;2022-07-29T09:52:46;23.70;68.70
981;DHT22;479;53.514;9.994;2022-07-29T09:55:14;23.70;69.10
981;DHT22;479;53.514;9.994;2022-07-29T09:57:41;23.70;68.20
981;DHT22;479;53.514;9.994;2022-07-29T10:00:09;23.70;69.10
981;DHT22;479;53.514;9.994;2022-07-29T10:02:41;23.50;69.60
981;DHT22;479;53.514;9.994;2022-07-29T10:05:18;23.50;66.40
981;DHT22;479;53.514;9.994;2022-07-29T10:07:48;23.50;66.70
981;DHT22;479;53.514;9.994;2022-07-29T10:10:19;23.60;66.00
981;DHT22;479;53.514;9.994;2022-07-29T10:12:52;23.50;65.70
981;DHT22;479;53.514;9.994;2022-07-29T10:15:21;23.50;66.50
981;DHT22;479;53.514;9.994;2022-07-29T10:17:49;23.50;67.50
981;DHT22;479;53.514;9.994;2022-07-29T10:20:17;23.60;68.00
981;DHT22;479;53.514;9.994;2022-07-29T10:22:44;23.60;68.50
981;DHT22;479;53.514;9.994;2022-07-29T10:25:14;23.60;68.90
981;DHT22;479;53.514;9.994;2022-07-29T10:27:42;23.70;66.90
981;DHT22;479;53.514;9.994;2022-07-29T10:30:10;23.60;66.20
981;DHT22;479;53.514;9.994;2022-07-29T10:33:02;23.70;67.20
981;DHT22;479;53.514;9.994;2022-07-29T10:35:45;23.80;67.20
981;DHT22;479;53.514;9.994;2022-07-29T10:38:42;23.90;67.20
981;DHT22;479;53.514;9.994;2022-07-29T10:41:24;24.10;67.30
981;DHT22;479;53.514;9.994;2022-07-29T10:43:59;24.30;66.80
981;DHT22;479;53.514;9.994;2022-07-29T10:46:27;24.70;64.70
981;DHT22;479;53.514;9.994;2022-07-29T10:49:09;25.10;62.80
981;DHT22;479;53.514;9.994;2022-07-29T10:51:56;25.60;62.50
981;DHT22;479;53.514;9.994;2022-07-29T10:54:53;25.70;59.80
981;DHT22;479;53.514;9.994;2022-07-29T10:57:24;26.20;59.10
981;DHT22;479;53.514;9.994;2022-07-29T11:00:30;26.70;58.30
981;DHT22;479;53.514;9.994;2022-07-29T11:02:58;26.80;56.80
981;DHT22;479;53.514;9.994;2022-07-29T11:05:27;26.90;57.70
981;DHT22;479;53.514;9.994;2022-07-29T11:08:19;26.40;56.70
981;DHT22;479;53.514;9.994;2022-07-29T11:10:48;26.40;56.10
981;DHT22;479;53.514;9.994;2022-07-29T11:13:48;26.30;55.60
981;DHT22;479;53.514;9.994;2022-07-29T11:16:18;26.40;55.40
981;DHT22;479;53.514;9.994;2022-07-29T11:19:19;26.20;56.20
981;DHT22;479;53.514;9.994;2022-07-29T11:21:46;26.10;55.60
981;DHT22;479;53.514;9.994;2022-07-29T11:24:16;26.00;56.00
981;DHT22;479;53.514;9.994;2022-07-29T11:26:43;25.90;56.30
981;DHT22;479;53.514;9.994;2022-07-29T11:29:19;26.00;56.30
981;DHT22;479;53.514;9.994;2022-07-29T11:31:50;26.10;55.70
981;DHT22;479;53.514;9.994;2022-07-29T11:34:22;26.00;55.10
981;DHT22;479;53.514;9.994;2022-07-29T11:37:18;25.80;54.30
981;DHT22;479;53.514;9.994;2022-07-29T11:39:47;25.90;55.20
981;DHT22;479;53.514;9.994;2022-07-29T11:42:37;25.80;55.10
981;DHT22;479;53.514;9.994;2022-07-29T11:45:07;26.10;54.60
981;DHT22;479;53.514;9.994;2022-07-29T11:47:36;26.20;54.50
981;DHT22;479;53.514;9.994;2022-07-29T11:50:05;26.20;54.40
981;DHT22;479;53.514;9.994;2022-07-29T11:52:33;26.20;54.60
981;DHT22;479;53.514;9.994;2022-07-29T11:55:05;26.10;53.50
981;DHT22;479;53.514;9.994;2022-07-29T11:57:34;25.90;53.60
981;DHT22;479;53.514;9.994;2022-07-29T12:00:04;26.20;54.10
981;DHT22;479;53.514;9.994;2022-07-29T12:02:42;26.20;53.40
981;DHT22;479;53.514;9.994;2022-07-29T12:05:10;26.20;53.50
981;DHT22;479;53.514;9.994;2022-07-29T12:07:38;26.30;52.60
981;DHT22;479;53.514;9.994;2022-07-29T12:10:07;25.80;53.50
981;DHT22;479;53.514;9.994;2022-07-29T12:12:35;25.70;54.10
981;DHT22;479;53.514;9.994;2022-07-29T12:15:13;25.90;53.90
981;DHT22;479;53.514;9.994;2022-07-29T12:17:41;26.10;53.60
981;DHT22;479;53.514;9.994;2022-07-29T12:20:09;26.20;52.50
981;DHT22;479;53.514;9.994;2022-07-29T12:22:37;26.10;52.60
981;DHT22;479;53.514;9.994;2022-07-29T12:25:07;26.20;53.40
981;DHT22;479;53.514;9.994;2022-07-29T12:27:35;26.30;53.30
981;DHT22;479;53.514;9.994;2022-07-29T12:30:05;26.30;52.60
981;DHT22;479;53.514;9.994;2022-07-29T12:32:34;26.20;52.10
981;DHT22;479;53.514;9.994;2022-07-29T12:35:04;26.20;53.10
981;DHT22;479;53.514;9.994;2022-07-29T12:37:33;25.90;52.90
981;DHT22;479;53.514;9.994;2022-07-29T12:40:00;25.70;53.40
981;DHT22;479;53.514;9.994;2022-07-29T12:42:28;25.80;52.90
981;DHT22;479;53.514;9.994;2022-07-29T12:44:54;25.70;51.80
981;DHT22;479;53.514;9.994;2022-07-29T12:47:22;25.60;52.30
981;DHT22;479;53.514;9.994;2022-07-29T12:49:50;25.70;52.10
981;DHT22;479;53.514;9.994;2022-07-29T12:52:26;25.80;52.00
981;DHT22;479;53.514;9.994;2022-07-29T12:54:54;26.10;52.20
981;DHT22;479;53.514;9.994;2022-07-29T12:57:21;26.20;52.10
981;DHT22;479;53.514;9.994;2022-07-29T13:00:06;26.40;52.30
981;DHT22;479;53.514;9.994;2022-07-29T13:02:36;26.50;51.70
981;DHT22;479;53.514;9.994;2022-07-29T13:05:05;26.60;51.30
981;DHT22;479;53.514;9.994;2022-07-29T13:07:35;26.50;50.70
981;DHT22;479;53.514;9.994;2022-07-29T13:10:14;26.50;48.80
981;DHT22;479;53.514;9.994;2022-07-29T13:13:00;26.40;48.50
981;DHT22;479;53.514;9.994;2022-07-29T13:15:27;26.30;48.30
981;DHT22;479;53.514;9.994;2022-07-29T13:17:54;26.30;48.20
981;DHT22;479;53.514;9.994;2022-07-29T13:20:24;26.30;47.70
981;DHT22;479;53.514;9.994;2022-07-29T13:22:54;26.30;48.30
981;DHT22;479;53.514;9.994;2022-07-29T13:25:25;26.50;48.80
981;DHT22;479;53.514;9.994;2022-07-29T13:27:53;26.40;48.60
981;DHT22;479;53.514;9.994;2022-07-29T13:30:21;26.40;48.70
981;DHT22;479;53.514;9.994;2022-07-29T13:32:49;26.40;46.30
981;DHT22;479;53.514;9.994;2022-07-29T13:35:16;26.30;46.20
981;DHT22;479;53.514;9.994;2022-07-29T13:37:43;26.40;46.90
981;DHT22;479;53.514;9.994;2022-07-29T13:40:12;26.30;46.80
981;DHT22;479;53.514;9.994;2022-07-29T13:42:40;26.20;47.70
981;DHT22;479;53.514;9.994;2022-07-29T13:45:09;26.10;47.60
981;DHT22;479;53.514;9.994;2022-07-29T13:47:36;25.90;48.30
981;DHT22;479;53.514;9.994;2022-07-29T13:50:05;25.90;48.90
981;DHT22;479;53.514;9.994;2022-07-29T13:52:33;26.00;48.70
981;DHT22;479;53.514;9.994;2022-07-29T13:55:00;25.90;47.70
981;DHT22;479;53.514;9.994;2022-07-29T13:57:28;25.90;48.10
981;DHT22;479;53.514;9.994;2022-07-29T13:59:55;26.00;48.30
981;DHT22;479;53.514;9.994;2022-07-29T14:02:22;26.20;48.70
981;DHT22;479;53.514;9.994;2022-07-29T14:04:49;26.10;56.20
981;DHT22;479;53.514;9.994;2022-07-29T14:07:16;25.90;58.60
981;DHT22;479;53.514;9.994;2022-07-29T14:09:43;25.80;59.50
981;DHT22;479;53.514;9.994;2022-07-29T14:12:10;25.80;60.60
981;DHT22;479;53.514;9.994;2022-07-29T14:14:38;25.50;61.20
981;DHT22;479;53.514;9.994;2022-07-29T14:17:07;25.30;62.60
981;DHT22;479;53.514;9.994;2022-07-29T14:19:34;25.00;63.30
981;DHT22;479;53.514;9.994;2022-07-29T14:22:03;24.60;65.10
981;DHT22;479;53.514;9.994;2022-07-29T14:24:31;24.40;66.60
981;DHT22;479;53.514;9.994;2022-07-29T14:26:58;24.20;68.90
981;DHT22;479;53.514;9.994;2022-07-29T14:29:25;24.20;71.10
981;DHT22;479;53.514;9.994;2022-07-29T14:31:53;24.30;73.80
981;DHT22;479;53.514;9.994;2022-07-29T14:34:20;24.50;74.40
981;DHT22;479;53.514;9.994;2022-07-29T14:36:47;24.60;73.20
981;DHT22;479;53.514;9.994;2022-07-29T14:39:14;24.60;72.70
981;DHT22;479;53.514;9.994;2022-07-29T14:41:42;24.60;72.20
981;DHT22;479;53.514;9.994;2022-07-29T14:44:09;24.60;72.30
981;DHT22;479;53.514;9.994;2022-07-29T14:46:36;24.50;72.60
981;DHT22;479;53.514;9.994;2022-07-29T14:49:04;24.40;73.80
981;DHT22;479;53.514;9.994;2022-07-29T14:51:32;24.50;73.70
981;DHT22;479;53.514;9.994;2022-07-29T14:53:59;24.40;74.10
981;DHT22;479;53.514;9.994;2022-07-29T14:56:26;24.40;74.10
981;DHT22;479;53.514;9.994;2022-07-29T14:58:55;24.50;75.50
981;DHT22;479;53.514;9.994;2022-07-29T15:01:23;24.70;73.30
981;DHT22;479;53.514;9.994;2022-07-29T15:03:49;24.80;73.80
981;DHT22;479;53.514;9.994;2022-07-29T15:06:18;24.70;73.70
981;DHT22;479;53.514;9.994;2022-07-29T15:08:45;24.60;74.50
981;DHT22;479;53.514;9.994;2022-07-29T15:11:12;24.50;74.50
981;DHT22;479;53.514;9.994;2022-07-29T15:13:39;24.60;74.50
981;DHT22;479;53.514;9.994;2022-07-29T15:16:06;24.60;74.00
981;DHT22;479;53.514;9.994;2022-07-29T15:18:33;24.60;75.00
981;DHT22;479;53.514;9.994;2022-07-29T15:21:00;24.60;75.00
981;DHT22;479;53.514;9.994;2022-07-29T15:23:29;24.60;75.00
981;DHT22;479;53.514;9.994;2022-07-29T15:25:56;24.60;75.70
981;DHT22;479;53.514;9.994;2022-07-29T15:28:23;24.50;77.00
981;DHT22;479;53.514;9.994;2022-07-29T15:30:49;24.30;77.60
981;DHT22;479;53.514;9.994;2022-07-29T15:33:16;24.20;78.30
981;DHT22;479;53.514;9.994;2022-07-29T15:35:43;24.20;76.60
981;DHT22;479;53.514;9.994;2022-07-29T15:38:10;24.20;74.60
981;DHT22;479;53.514;9.994;2022-07-29T15:40:38;24.20;74.60
981;DHT22;479;53.514;9.994;2022-07-29T15:43:06;24.40;74.70
981;DHT22;479;53.514;9.994;2022-07-29T15:45:37;24.50;75.30
981;DHT22;479;53.514;9.994;2022-07-29T15:48:05;24.40;74.80
981;DHT22;479;53.514;9.994;2022-07-29T15:50:33;24.30;76.00
981;DHT22;479;53.514;9.994;2022-07-29T15:53:00;24.30;75.90
981;DHT22;479;53.514;9.994;2022-07-29T15:55:27;24.30;77.10
981;DHT22;479;53.514;9.994;2022-07-29T15:57:55;24.30;78.10
981;DHT22;479;53.514;9.994;2022-07-29T16:00:22;24.20;80.80
981;DHT22;479;53.514;9.994;2022-07-29T16:02:49;24.20;83.10
981;DHT22;479;53.514;9.994;2022-07-29T16:05:17;24.20;83.40
981;DHT22;479;53.514;9.994;2022-07-29T16:07:44;24.10;81.80
981;DHT22;479;53.514;9.994;2022-07-29T16:10:11;24.00;84.10
981;DHT22;479;53.514;9.994;2022-07-29T16:12:38;23.90;85.70
981;DHT22;479;53.514;9.994;2022-07-29T16:15:07;23.90;87.80
981;DHT22;479;53.514;9.994;2022-07-29T16:17:35;23.80;89.20
981;DHT22;479;53.514;9.994;2022-07-29T16:20:03;23.80;90.40
981;DHT22;479;53.514;9.994;2022-07-29T16:22:31;23.70;91.50
981;DHT22;479;53.514;9.994;2022-07-29T16:24:58;23.80;92.00
981;DHT22;479;53.514;9.994;2022-07-29T16:27:25;23.80;92.40
981;DHT22;479;53.514;9.994;2022-07-29T16:29:53;23.70;92.90
981;DHT22;479;53.514;9.994;2022-07-29T16:32:21;23.70;93.20
981;DHT22;479;53.514;9.994;2022-07-29T16:34:48;23.70;92.40
981;DHT22;479;53.514;9.994;2022-07-29T16:37:15;23.70;93.00
981;DHT22;479;53.514;9.994;2022-07-29T16:39:42;23.70;93.40
981;DHT22;479;53.514;9.994;2022-07-29T16:42:09;23.70;93.60
981;DHT22;479;53.514;9.994;2022-07-29T16:44:36;23.80;94.30
981;DHT22;479;53.514;9.994;2022-07-29T16:47:03;23.80;94.60